createdAt,value
2018-05-15T00:00:59.026Z,7.70
2018-05-15T00:03:30.313Z,8.57
2018-05-15T00:06:02.339Z,8.93
2018-05-15T00:08:33.708Z,8.20
2018-05-15T00:11:05.633Z,13.17
2018-05-15T00:13:36.982Z,11.07
2018-05-15T00:16:08.173Z,10.23
2018-05-15T00:18:39.777Z,9.13
2018-05-15T00:21:11.064Z,10.33
2018-05-15T00:23:42.251Z,11.43
2018-05-15T00:26:14.194Z,9.17
2018-05-15T00:28:45.345Z,8.80
2018-05-15T00:31:17.333Z,10.30
2018-05-15T00:33:48.571Z,9.03
2018-05-15T00:36:19.814Z,12.07
2018-05-15T00:38:51.068Z,8.93
2018-05-15T00:41:22.519Z,8.43
2018-05-15T00:43:53.695Z,7.27
2018-05-15T00:46:24.935Z,8.50
2018-05-15T00:48:56.094Z,8.20
2018-05-15T00:51:27.474Z,11.80
2018-05-15T00:53:59.444Z,9.27
2018-05-15T00:56:30.603Z,8.50
2018-05-15T00:59:01.997Z,9.63
2018-05-15T01:01:33.202Z,9.87
2018-05-15T01:04:05.539Z,7.93
2018-05-15T01:06:37.445Z,8.97
2018-05-15T01:09:08.721Z,8.43
2018-05-15T01:11:40.006Z,10.07
2018-05-15T01:14:11.226Z,8.20
2018-05-15T01:16:43.150Z,8.97
2018-05-15T01:19:14.381Z,8.47
2018-05-15T01:21:46.323Z,8.93
2018-05-15T01:24:17.575Z,8.57
2018-05-15T01:26:48.756Z,7.77
2018-05-15T01:29:19.981Z,10.77
2018-05-15T01:31:51.192Z,10.57
2018-05-15T01:34:23.150Z,8.67
2018-05-15T01:36:54.620Z,11.00
2018-05-15T01:39:27.699Z,10.20
2018-05-15T01:41:59.260Z,8.43
2018-05-15T01:44:30.472Z,8.83
2018-05-15T01:47:02.065Z,11.20
2018-05-15T01:49:33.302Z,9.10
2018-05-15T01:52:04.460Z,9.23
2018-05-15T01:54:37.207Z,12.40
2018-05-15T01:57:08.386Z,9.27
2018-05-15T01:59:39.602Z,8.53
2018-05-15T02:02:10.829Z,7.83
2018-05-15T02:04:42.033Z,8.83
2018-05-15T02:07:13.274Z,8.83
2018-05-15T02:09:44.495Z,9.70
2018-05-15T02:12:15.763Z,8.63
2018-05-15T02:14:46.963Z,8.33
2018-05-15T02:17:18.409Z,9.73
2018-05-15T02:19:49.646Z,8.63
2018-05-15T02:22:20.870Z,11.37
2018-05-15T02:24:52.794Z,11.17
2018-05-15T02:27:24.216Z,10.57
2018-05-15T02:29:55.416Z,9.53
2018-05-15T02:32:27.391Z,8.60
2018-05-15T02:34:58.591Z,8.90
2018-05-15T02:37:29.806Z,9.53
2018-05-15T02:40:01.017Z,10.83
2018-05-15T02:42:32.977Z,8.67
2018-05-15T02:45:04.909Z,8.90
2018-05-15T02:47:36.198Z,9.20
2018-05-15T02:50:07.400Z,9.57
2018-05-15T02:52:38.643Z,12.60
2018-05-15T02:55:09.958Z,8.47
2018-05-15T02:57:41.221Z,8.30
2018-05-15T03:00:12.649Z,8.40
2018-05-15T03:02:43.890Z,8.77
2018-05-15T03:05:15.178Z,8.93
2018-05-15T03:07:46.367Z,8.57
2018-05-15T03:10:17.936Z,10.07
2018-05-15T03:12:49.145Z,8.60
2018-05-15T03:15:20.723Z,8.60
2018-05-15T03:17:52.687Z,10.30
2018-05-15T03:20:23.947Z,10.63
2018-05-15T03:22:55.934Z,9.73
2018-05-15T03:25:27.180Z,12.30
2018-05-15T03:27:58.424Z,8.40
2018-05-15T03:30:30.411Z,10.57
2018-05-15T03:33:02.375Z,9.00
2018-05-15T03:35:33.606Z,9.67
2018-05-15T03:38:04.815Z,12.37
2018-05-15T03:40:36.034Z,9.17
2018-05-15T03:43:07.224Z,10.13
2018-05-15T03:45:38.602Z,12.10
2018-05-15T03:48:10.528Z,10.80
2018-05-15T03:50:41.783Z,9.27
2018-05-15T03:53:13.020Z,9.17
2018-05-15T03:55:44.403Z,9.87
2018-05-15T03:58:15.637Z,8.57
2018-05-15T04:01:00.063Z,10.37
2018-05-15T04:03:43.681Z,10.43
2018-05-15T04:06:27.336Z,12.63
2018-05-15T04:08:59.285Z,12.00
2018-05-15T04:11:30.603Z,9.53
2018-05-15T04:14:01.821Z,10.37
2018-05-15T04:16:33.052Z,11.83
2018-05-15T04:19:04.291Z,8.87
2018-05-15T04:21:37.198Z,10.23
2018-05-15T04:24:08.382Z,9.80
2018-05-15T04:29:40.545Z,9.53
2018-05-15T04:32:11.775Z,11.47
2018-05-15T04:34:42.955Z,12.27
2018-05-15T04:37:14.184Z,9.83
2018-05-15T04:39:45.439Z,11.43
2018-05-15T04:42:16.984Z,11.03
2018-05-15T04:44:48.346Z,12.03
2018-05-15T04:47:19.565Z,9.63
2018-05-15T04:49:51.686Z,9.37
2018-05-15T04:52:22.907Z,10.33
2018-05-15T04:54:54.173Z,12.23
2018-05-15T04:57:25.382Z,10.93
2018-05-15T04:59:56.837Z,11.90
2018-05-15T05:02:28.021Z,12.80
2018-05-15T05:05:00.230Z,11.30
2018-05-15T05:07:31.434Z,12.43
2018-05-15T05:10:03.629Z,13.03
2018-05-15T05:12:34.848Z,11.63
2018-05-15T05:15:06.813Z,10.60
2018-05-15T05:17:38.110Z,14.90
2018-05-15T05:20:09.354Z,12.33
2018-05-15T05:22:40.607Z,10.17
2018-05-15T05:25:11.881Z,10.43
2018-05-15T05:27:43.147Z,11.87
2018-05-15T05:30:14.456Z,11.60
2018-05-15T05:32:45.645Z,9.43
2018-05-15T05:35:16.965Z,9.53
2018-05-15T05:37:48.141Z,9.47
2018-05-15T05:40:19.375Z,13.20
2018-05-15T05:42:50.666Z,9.60
2018-05-15T05:45:21.953Z,12.93
2018-05-15T05:47:53.192Z,13.80
2018-05-15T05:50:25.591Z,11.77
2018-05-15T05:52:56.837Z,11.70
2018-05-15T05:55:28.014Z,10.37
2018-05-15T05:57:59.315Z,10.07
2018-05-15T06:00:30.534Z,14.60
2018-05-15T06:03:01.820Z,15.90
2018-05-15T06:05:33.018Z,9.37
2018-05-15T06:08:05.232Z,15.70
2018-05-15T06:10:36.504Z,13.90
2018-05-15T06:13:07.766Z,12.47
2018-05-15T06:15:39.150Z,12.10
2018-05-15T06:18:11.046Z,9.63
2018-05-15T06:20:42.256Z,15.50
2018-05-15T06:23:13.490Z,14.40
2018-05-15T06:25:44.699Z,9.80
2018-05-15T06:28:15.946Z,14.77
2018-05-15T06:30:47.540Z,17.80
2018-05-15T06:33:18.836Z,12.23
2018-05-15T06:35:50.795Z,24.23
2018-05-15T06:38:22.028Z,9.47
2018-05-15T06:40:53.288Z,10.63
2018-05-15T06:43:24.505Z,8.70
2018-05-15T06:45:55.700Z,8.30
2018-05-15T06:48:27.817Z,11.10
2018-05-15T06:50:59.038Z,10.20
2018-05-15T06:53:30.268Z,9.13
2018-05-15T06:56:01.448Z,12.33
2018-05-15T06:58:33.774Z,10.80
2018-05-15T07:01:10.522Z,9.97
2018-05-15T07:03:43.079Z,12.50
2018-05-15T07:06:14.292Z,12.20
2018-05-15T07:08:45.983Z,9.97
2018-05-15T07:11:17.279Z,8.83
2018-05-15T07:13:48.854Z,12.27
2018-05-15T07:16:20.040Z,10.73
2018-05-15T07:18:51.310Z,10.00
2018-05-15T07:21:22.511Z,8.70
2018-05-15T07:23:53.747Z,10.93
2018-05-15T07:26:24.968Z,10.43
2018-05-15T07:28:56.321Z,9.57
2018-05-15T07:31:27.543Z,15.73
2018-05-15T07:33:58.849Z,10.63
2018-05-15T07:36:30.835Z,10.73
2018-05-15T07:39:02.107Z,8.83
2018-05-15T07:41:33.515Z,10.10
2018-05-15T07:44:04.913Z,8.73
2018-05-15T07:46:36.195Z,8.80
2018-05-15T07:49:08.661Z,9.57
2018-05-15T07:51:40.699Z,7.23
2018-05-15T07:54:11.915Z,8.97
2018-05-15T07:56:43.166Z,7.87
2018-05-15T07:59:14.411Z,8.13
2018-05-15T08:02:15.319Z,12.03
2018-05-15T08:04:47.478Z,11.97
2018-05-15T08:07:39.563Z,8.87
2018-05-15T08:10:11.404Z,8.90
2018-05-15T08:12:42.710Z,10.13
2018-05-15T08:15:14.050Z,13.23
2018-05-15T08:17:45.320Z,7.13
2018-05-15T08:20:16.832Z,10.13
2018-05-15T08:22:48.882Z,7.80
2018-05-15T08:25:20.311Z,9.87
2018-05-15T08:27:51.783Z,6.73
2018-05-15T08:30:23.094Z,9.97
2018-05-15T08:32:54.379Z,8.83
2018-05-15T08:35:27.559Z,6.63
2018-05-15T08:37:58.874Z,8.07
2018-05-15T08:40:30.133Z,6.90
2018-05-15T08:43:01.374Z,7.53
2018-05-15T08:45:32.636Z,7.33
2018-05-15T08:48:03.879Z,8.50
2018-05-15T08:50:35.151Z,11.57
2018-05-15T08:53:06.535Z,8.10
2018-05-15T08:55:38.502Z,5.70
2018-05-15T08:58:10.415Z,7.10
2018-05-15T09:00:41.666Z,5.23
2018-05-15T09:03:12.916Z,6.53
2018-05-15T09:05:44.297Z,12.33
2018-05-15T09:08:15.551Z,5.70
2018-05-15T09:10:47.218Z,8.80
2018-05-15T09:13:18.469Z,5.37
2018-05-15T09:15:49.716Z,6.43
2018-05-15T09:18:21.031Z,7.57
2018-05-15T09:20:52.214Z,9.23
2018-05-15T09:23:23.810Z,8.47
2018-05-15T09:25:57.413Z,6.23
2018-05-15T09:28:29.618Z,8.50
2018-05-15T09:31:01.271Z,9.67
2018-05-15T09:33:34.199Z,6.90
2018-05-15T09:36:06.213Z,7.03
2018-05-15T09:38:37.439Z,7.57
2018-05-15T09:41:08.793Z,5.47
2018-05-15T09:43:54.967Z,4.73
2018-05-15T09:46:26.947Z,7.03
2018-05-15T09:48:59.122Z,6.93
2018-05-15T09:51:30.662Z,9.27
2018-05-15T09:54:02.665Z,5.80
2018-05-15T09:56:34.033Z,5.90
2018-05-15T09:59:05.978Z,7.47
2018-05-15T10:01:37.248Z,8.83
2018-05-15T10:04:09.382Z,7.50
2018-05-15T10:06:40.801Z,10.07
2018-05-15T10:09:12.023Z,5.10
2018-05-15T10:11:43.298Z,5.97
2018-05-15T10:14:16.992Z,8.50
2018-05-15T10:16:48.399Z,7.97
2018-05-15T10:19:20.547Z,4.67
2018-05-15T10:21:51.781Z,9.37
2018-05-15T10:24:23.079Z,5.13
2018-05-15T10:26:54.320Z,7.93
2018-05-15T10:29:26.618Z,5.57
2018-05-15T10:31:57.889Z,5.60
2018-05-15T10:34:29.229Z,9.30
2018-05-15T10:37:00.437Z,6.23
2018-05-15T10:39:31.734Z,5.60
2018-05-15T10:42:02.948Z,6.73
2018-05-15T10:44:34.227Z,7.40
2018-05-15T10:47:05.438Z,7.67
2018-05-15T10:49:36.761Z,8.20
2018-05-15T10:52:07.993Z,7.47
2018-05-15T10:54:40.108Z,6.93
2018-05-15T10:57:11.320Z,5.17
2018-05-15T10:59:42.646Z,7.00
2018-05-15T11:02:13.819Z,6.93
2018-05-15T11:04:45.099Z,6.43
2018-05-15T11:07:16.371Z,8.63
2018-05-15T11:09:47.825Z,8.30
2018-05-15T11:12:19.803Z,5.13
2018-05-15T11:14:51.137Z,4.80
2018-05-15T11:17:22.414Z,5.37
2018-05-15T11:20:05.932Z,5.53
2018-05-15T11:22:59.411Z,6.30
2018-05-15T11:25:30.702Z,7.77
2018-05-15T11:28:01.883Z,7.33
2018-05-15T11:30:33.260Z,6.60
2018-05-15T11:33:04.425Z,6.37
2018-05-15T11:35:35.839Z,9.23
2018-05-15T11:38:07.153Z,6.90
2018-05-15T11:40:38.683Z,11.47
2018-05-15T11:43:09.857Z,8.33
2018-05-15T11:45:41.145Z,6.90
2018-05-15T11:48:13.121Z,4.80
2018-05-15T11:50:44.694Z,7.87
2018-05-15T11:53:15.841Z,9.93
2018-05-15T11:55:46.326Z,7.27
2018-05-15T11:58:17.583Z,7.40
2018-05-15T12:00:49.501Z,8.03
2018-05-15T12:03:22.198Z,8.30
2018-05-15T12:05:53.503Z,8.67
2018-05-15T12:08:24.766Z,5.03
2018-05-15T12:10:56.015Z,4.57
2018-05-15T12:13:27.296Z,8.27
2018-05-15T12:15:58.636Z,4.33
2018-05-15T12:18:32.011Z,6.60
2018-05-15T12:21:03.719Z,7.77
2018-05-15T12:23:35.071Z,6.53
2018-05-15T12:26:07.030Z,6.43
2018-05-15T12:28:38.278Z,6.00
2018-05-15T12:31:10.527Z,6.70
2018-05-15T12:33:42.532Z,6.43
2018-05-15T12:36:14.534Z,4.60
2018-05-15T12:38:45.755Z,5.57
2018-05-15T12:41:17.283Z,7.97
2018-05-15T12:43:48.468Z,6.30
2018-05-15T12:46:21.368Z,6.50
2018-05-15T12:48:54.616Z,9.63
2018-05-15T12:51:25.843Z,8.83
2018-05-15T12:53:57.084Z,6.83
2018-05-15T12:56:29.452Z,7.07
2018-05-15T12:59:00.786Z,7.57
2018-05-15T13:01:32.824Z,4.80
2018-05-15T13:04:03.997Z,9.37
2018-05-15T13:06:35.974Z,4.67
2018-05-15T13:09:07.954Z,4.33
2018-05-15T13:11:39.174Z,9.33
2018-05-15T13:14:10.415Z,5.00
2018-05-15T13:16:41.742Z,7.87
2018-05-15T13:19:12.953Z,6.33
2018-05-15T13:21:44.451Z,13.00
2018-05-15T13:24:16.412Z,7.13
2018-05-15T13:26:48.604Z,5.67
2018-05-15T13:29:19.866Z,10.70
2018-05-15T13:31:51.052Z,8.40
2018-05-15T13:34:22.325Z,7.60
2018-05-15T13:36:53.659Z,5.27
2018-05-15T13:39:24.997Z,4.77
2018-05-15T13:41:56.231Z,5.67
2018-05-15T13:44:28.209Z,5.60
2018-05-15T13:47:00.310Z,5.37
2018-05-15T13:49:31.539Z,5.00
2018-05-15T13:52:02.893Z,6.40
2018-05-15T13:54:34.069Z,4.60
2018-05-15T13:57:05.744Z,8.07
2018-05-15T13:59:37.313Z,4.30
2018-05-15T14:02:09.396Z,7.77
2018-05-15T14:04:41.322Z,12.73
2018-05-15T14:07:13.319Z,6.27
2018-05-15T14:09:44.575Z,7.07
2018-05-15T14:12:15.834Z,6.73
2018-05-15T14:14:47.031Z,6.00
2018-05-15T14:17:18.793Z,10.77
2018-05-15T14:19:50.062Z,9.83
2018-05-15T14:22:21.293Z,6.30
2018-05-15T14:24:53.468Z,4.47
2018-05-15T14:27:30.467Z,9.07
2018-05-15T14:30:01.709Z,7.73
2018-05-15T14:32:33.053Z,5.97
2018-05-15T14:35:04.283Z,11.10
2018-05-15T14:37:36.338Z,9.33
2018-05-15T14:40:08.363Z,7.70
2018-05-15T14:42:52.070Z,5.00
2018-05-15T14:45:24.098Z,6.93
2018-05-15T14:47:56.074Z,16.70
2018-05-15T14:50:27.267Z,9.70
2018-05-15T14:52:58.447Z,9.37
2018-05-15T14:55:30.395Z,9.97
2018-05-15T14:58:02.087Z,9.30
2018-05-15T15:00:33.258Z,7.87
2018-05-15T15:03:04.531Z,6.63
2018-05-15T15:05:36.457Z,7.87
2018-05-15T15:08:07.703Z,6.17
2018-05-15T15:10:38.947Z,5.27
2018-05-15T15:13:10.136Z,5.20
2018-05-15T15:15:42.144Z,4.93
2018-05-15T15:18:13.372Z,5.90
2018-05-15T15:20:44.898Z,4.43
2018-05-15T15:23:16.096Z,8.77
2018-05-15T15:25:47.292Z,5.03
2018-05-15T15:28:19.296Z,5.77
2018-05-15T15:30:50.952Z,6.10
2018-05-15T15:33:24.096Z,7.07
2018-05-15T15:35:58.620Z,7.87
2018-05-15T15:38:30.033Z,4.77
2018-05-15T15:41:01.866Z,3.80
2018-05-15T15:43:34.241Z,4.23
2018-05-15T15:46:06.877Z,4.70
2018-05-15T15:48:38.236Z,5.23
2018-05-15T15:51:09.894Z,5.60
2018-05-15T15:53:41.291Z,5.07
2018-05-15T15:56:13.796Z,6.30
2018-05-15T15:58:45.691Z,8.83
2018-05-15T16:01:18.336Z,23.63
2018-05-15T16:03:50.044Z,15.80
2018-05-15T16:06:21.598Z,9.17
2018-05-15T16:08:53.850Z,6.57
2018-05-15T16:11:25.709Z,6.57
2018-05-15T16:13:57.570Z,4.70
2018-05-15T16:16:29.040Z,5.13
2018-05-15T16:19:01.111Z,7.03
2018-05-15T16:21:32.857Z,5.47
2018-05-15T16:24:05.642Z,6.30
2018-05-15T16:26:37.781Z,6.47
2018-05-15T16:29:10.339Z,6.83
2018-05-15T16:31:42.636Z,5.10
2018-05-15T16:34:14.155Z,7.47
2018-05-15T16:36:45.572Z,6.07
2018-05-15T16:39:18.069Z,5.50
2018-05-15T16:41:49.390Z,7.50
2018-05-15T16:44:20.889Z,6.37
2018-05-15T16:46:52.550Z,4.43
2018-05-15T16:49:24.843Z,5.10
2018-05-15T16:51:56.297Z,8.00
2018-05-15T16:54:27.539Z,6.40
2018-05-15T16:56:58.964Z,8.47
2018-05-15T16:59:31.877Z,7.40
2018-05-15T17:02:03.170Z,4.60
2018-05-15T17:04:34.508Z,12.57
2018-05-15T17:07:05.763Z,4.67
2018-05-15T17:09:37.057Z,4.27
2018-05-15T17:12:08.253Z,6.63
2018-05-15T17:14:39.482Z,5.10
2018-05-15T17:17:10.706Z,4.63
2018-05-15T17:19:42.735Z,4.27
2018-05-15T17:22:14.146Z,4.50
2018-05-15T17:24:45.389Z,4.73
2018-05-15T17:27:16.621Z,16.87
2018-05-15T17:29:47.906Z,6.10
2018-05-15T17:32:19.203Z,6.83
2018-05-15T17:34:50.462Z,6.53
2018-05-15T17:37:21.661Z,7.07
2018-05-15T17:39:54.426Z,7.97
2018-05-15T17:42:26.418Z,5.70
2018-05-15T17:44:57.598Z,5.40
2018-05-15T17:47:29.209Z,7.30
2018-05-15T17:50:00.415Z,5.83
2018-05-15T17:52:31.617Z,5.70
2018-05-15T17:55:03.605Z,4.77
2018-05-15T17:57:34.937Z,5.23
2018-05-15T18:00:06.375Z,5.43
2018-05-15T18:02:38.073Z,6.23
2018-05-15T18:05:10.497Z,7.27
2018-05-15T18:07:42.799Z,5.27
2018-05-15T18:10:14.223Z,6.63
2018-05-15T18:12:46.247Z,4.93
2018-05-15T18:15:17.515Z,5.60
2018-05-15T18:17:48.653Z,6.70
2018-05-15T18:20:20.691Z,6.20
2018-05-15T18:22:52.200Z,5.33
2018-05-15T18:25:23.650Z,6.03
2018-05-15T18:27:54.842Z,6.67
2018-05-15T18:30:26.055Z,7.87
2018-05-15T18:32:57.294Z,6.73
2018-05-15T18:35:28.538Z,7.10
2018-05-15T18:37:59.826Z,7.43
2018-05-15T18:40:31.251Z,7.93
2018-05-15T18:43:02.444Z,8.77
2018-05-15T18:45:34.415Z,6.73
2018-05-15T18:48:06.353Z,6.67
2018-05-15T18:50:38.420Z,7.37
2018-05-15T18:53:09.626Z,8.43
2018-05-15T18:55:41.053Z,7.23
2018-05-15T18:58:12.306Z,7.27
2018-05-15T19:00:43.544Z,7.83
2018-05-15T19:03:14.775Z,7.50
2018-05-15T19:05:46.076Z,7.53
2018-05-15T19:08:17.305Z,6.97
2018-05-15T19:10:48.568Z,6.97
2018-05-15T19:13:19.738Z,7.37
2018-05-15T19:15:50.951Z,12.37
2018-05-15T19:18:22.233Z,8.27
2018-05-15T19:20:53.533Z,7.90
2018-05-15T19:23:25.862Z,7.40
2018-05-15T19:25:57.157Z,9.93
2018-05-15T19:28:28.374Z,9.70
2018-05-15T19:30:59.676Z,10.80
2018-05-15T19:33:37.771Z,10.90
2018-05-15T19:36:09.863Z,12.80
2018-05-15T19:38:41.047Z,10.47
2018-05-15T19:41:18.396Z,9.20
2018-05-15T19:43:49.567Z,9.77
2018-05-15T19:46:20.796Z,9.40
2018-05-15T19:48:52.112Z,10.70
2018-05-15T19:51:24.202Z,10.40
2018-05-15T19:53:55.422Z,9.63
2018-05-15T19:56:27.406Z,9.33
2018-05-15T19:58:58.588Z,10.17
2018-05-15T20:01:29.807Z,10.10
2018-05-15T20:04:01.040Z,11.17
2018-05-15T20:06:32.244Z,9.43
2018-05-15T20:09:04.258Z,11.03
2018-05-15T20:11:35.461Z,10.37
2018-05-15T20:14:06.799Z,10.40
2018-05-15T20:16:38.839Z,10.47
2018-05-15T20:19:10.103Z,9.63
2018-05-15T20:21:42.106Z,10.67
2018-05-15T20:24:13.338Z,12.73
2018-05-15T20:26:44.626Z,9.23
2018-05-15T20:29:15.965Z,9.97
2018-05-15T20:31:47.179Z,9.80
2018-05-15T20:34:18.374Z,11.37
2018-05-15T20:36:50.391Z,9.23
2018-05-15T20:39:21.626Z,10.63
2018-05-15T20:41:52.870Z,9.60
2018-05-15T20:44:24.086Z,12.00
2018-05-15T20:46:56.049Z,11.23
2018-05-15T20:49:28.249Z,10.50
2018-05-15T20:51:59.436Z,11.63
2018-05-15T20:54:30.735Z,10.13
2018-05-15T20:57:02.085Z,10.87
2018-05-15T20:59:33.408Z,10.43
2018-05-15T21:02:04.702Z,11.67
2018-05-15T21:04:36.059Z,10.47
2018-05-15T21:07:07.248Z,9.93
2018-05-15T21:09:39.404Z,12.47
2018-05-15T21:12:10.697Z,10.43
2018-05-15T21:14:41.959Z,10.63
2018-05-15T21:17:13.903Z,9.93
2018-05-15T21:19:45.201Z,10.63
2018-05-15T21:22:18.783Z,10.97
2018-05-15T21:24:50.003Z,11.60
2018-05-15T21:27:22.001Z,12.50
2018-05-15T21:29:54.366Z,11.43
2018-05-15T21:32:25.578Z,14.27
2018-05-15T21:34:57.094Z,11.30
2018-05-15T21:37:28.391Z,11.67
2018-05-15T21:39:59.627Z,11.73
2018-05-15T21:42:31.661Z,12.37
2018-05-15T21:45:03.130Z,14.47
2018-05-15T21:47:35.461Z,12.57
2018-05-15T21:50:06.919Z,13.10
2018-05-15T21:52:39.280Z,13.07
2018-05-15T21:55:10.556Z,16.90
2018-05-15T21:57:42.212Z,13.03
2018-05-15T22:00:14.145Z,12.03
2018-05-15T22:02:45.696Z,13.27
2018-05-15T22:05:16.906Z,12.77
2018-05-15T22:07:48.081Z,14.10
2018-05-15T22:10:19.310Z,15.47
2018-05-15T22:13:03.197Z,13.00
2018-05-15T22:15:46.821Z,17.20
2018-05-15T22:18:30.230Z,14.80
2018-05-15T22:21:13.866Z,16.47
2018-05-15T22:23:44.966Z,17.43
2018-05-15T22:26:16.275Z,16.20
2018-05-15T22:28:47.465Z,17.90
2018-05-15T22:31:18.689Z,18.70
2018-05-15T22:33:49.891Z,17.97
2018-05-15T22:36:21.167Z,17.50
2018-05-15T22:38:52.354Z,23.97
2018-05-15T22:41:23.578Z,16.97
2018-05-15T22:43:55.553Z,19.57
2018-05-15T22:46:27.566Z,23.03
2018-05-15T22:48:58.769Z,22.93
2018-05-15T22:51:30.008Z,20.87
2018-05-15T22:54:01.231Z,33.33
2018-05-15T22:56:35.226Z,20.10
2018-05-15T22:59:07.055Z,20.20
2018-05-15T23:01:38.294Z,29.30
2018-05-15T23:04:09.553Z,18.10
2018-05-15T23:06:40.735Z,24.17
2018-05-15T23:09:11.942Z,22.67
2018-05-15T23:11:43.149Z,23.67
2018-05-15T23:14:15.110Z,22.47
2018-05-15T23:16:46.278Z,22.33
2018-05-15T23:19:17.714Z,19.00
2018-05-15T23:21:48.879Z,18.97
2018-05-15T23:24:20.508Z,21.73
2018-05-15T23:26:51.726Z,22.10
2018-05-15T23:29:23.715Z,19.47
2018-05-15T23:31:54.909Z,23.47
2018-05-15T23:34:26.148Z,19.30
2018-05-15T23:36:57.320Z,20.00
2018-05-15T23:39:29.304Z,25.07
2018-05-15T23:42:00.494Z,20.13
2018-05-15T23:44:31.731Z,19.37
2018-05-15T23:47:02.913Z,18.83
2018-05-15T23:49:35.135Z,19.30
2018-05-15T23:52:06.322Z,22.40
2018-05-15T23:54:38.269Z,21.93
2018-05-15T23:57:09.550Z,21.73
2018-05-15T23:59:40.747Z,22.77
